Time;durP1;ratioP1;P1;durP2;ratioP2;P2;SDS_P1;SDS_P2;PMS_P1;PMS_P2;Temp;Humidity;BMP_temperature;BMP_pressure;BME280_temperature;BME280_humidity;BME280_pressure;Samples;Min_cycle;Max_cycle;Signal;HPM_P1;HPM_P2
2022/05/14 00:00:42;;;;;;;4.90;1.75;;;23.60;34.70;;;;;;5134477;27;20023;-38
2022/05/14 00:03:08;;;;;;;4.25;1.70;;;23.60;34.80;;;;;;5134641;27;20015;-38
2022/05/14 00:05:34;;;;;;;3.70;1.65;;;23.60;34.70;;;;;;5135454;27;20100;-38
2022/05/14 00:08:00;;;;;;;3.78;1.73;;;23.50;34.70;;;;;;5135059;27;20485;-39
2022/05/14 00:10:30;;;;;;;3.40;1.50;;;23.50;34.60;;;;;;5134851;27;20011;-40
2022/05/14 00:13:05;;;;;;;3.53;1.65;;;23.60;34.80;;;;;;5134600;27;20084;-37
2022/05/14 00:15:36;;;;;;;3.17;1.50;;;23.60;34.80;;;;;;5135081;27;20035;-41
2022/05/14 00:18:03;;;;;;;3.33;1.42;;;23.50;34.70;;;;;;5135084;27;20015;-37
2022/05/14 00:20:29;;;;;;;4.57;1.55;;;23.50;34.70;;;;;;5135544;27;20406;-37
2022/05/14 00:22:56;;;;;;;4.00;1.50;;;23.50;34.70;;;;;;5134952;27;20011;-39
2022/05/14 00:25:22;;;;;;;4.70;1.88;;;23.50;34.80;;;;;;5134740;28;20030;-37
2022/05/14 00:27:49;;;;;;;5.05;1.40;;;23.50;34.80;;;;;;5135172;28;20379;-42
2022/05/14 00:30:15;;;;;;;3.75;1.52;;;23.50;34.70;;;;;;5134946;27;20064;-39
2022/05/14 00:32:41;;;;;;;4.43;1.70;;;23.50;34.70;;;;;;5134686;27;20027;-40
2022/05/14 00:35:09;;;;;;;3.60;1.52;;;23.50;34.80;;;;;;5134715;28;20028;-40
2022/05/14 00:37:35;;;;;;;3.78;1.48;;;23.50;34.80;;;;;;5134722;27;20012;-38
2022/05/14 00:40:06;;;;;;;3.67;1.60;;;23.50;34.70;;;;;;5134734;27;20470;-38
2022/05/14 00:42:32;;;;;;;5.38;1.70;;;23.50;34.70;;;;;;5135444;27;20015;-39
2022/05/14 00:44:58;;;;;;;3.45;1.60;;;23.50;34.80;;;;;;5134954;28;20026;-38
2022/05/14 00:47:24;;;;;;;3.22;1.23;;;23.50;34.80;;;;;;5134508;28;20019;-38
2022/05/14 00:49:50;;;;;;;3.45;1.75;;;23.50;34.80;;;;;;5134639;28;20097;-38
2022/05/14 00:52:18;;;;;;;3.80;1.40;;;23.50;34.80;;;;;;5134437;28;20413;-38
2022/05/14 00:54:46;;;;;;;4.85;1.52;;;23.50;34.80;;;;;;5116550;28;20017;-37
2022/05/14 00:57:13;;;;;;;3.45;1.40;;;23.40;34.80;;;;;;5099295;28;20439;-38
2022/05/14 00:59:39;;;;;;;3.10;1.60;;;23.40;34.80;;;;;;5133060;28;20015;-38
2022/05/14 01:02:06;;;;;;;4.15;1.58;;;23.40;34.80;;;;;;5133146;28;20050;-38
2022/05/14 01:04:32;;;;;;;3.75;1.60;;;23.50;34.90;;;;;;5135223;27;20027;-38
2022/05/14 01:07:18;;;;;;;4.32;1.77;;;23.40;34.90;;;;;;5133919;28;20381;-38
2022/05/14 01:09:50;;;;;;;4.03;1.25;;;23.40;34.90;;;;;;5134683;27;20045;-38
2022/05/14 01:12:18;;;;;;;7.18;1.88;;;23.40;34.90;;;;;;5139956;27;20019;-40
2022/05/14 01:14:44;;;;;;;2.92;1.38;;;23.40;34.90;;;;;;5138260;27;20050;-38
2022/05/14 01:17:10;;;;;;;4.43;1.48;;;23.40;34.90;;;;;;5138656;27;20012;-38
2022/05/14 01:19:36;;;;;;;3.63;1.30;;;23.40;34.90;;;;;;5138369;27;20018;-38
2022/05/14 01:22:11;;;;;;;4.70;1.50;;;23.40;34.90;;;;;;5138560;27;20409;-38
2022/05/14 01:27:46;;;;;;;3.90;1.30;;;23.40;35.00;;;;;;5141217;27;20026;-38
2022/05/14 01:30:12;;;;;;;4.72;1.73;;;23.30;34.90;;;;;;5121810;27;20475;-39
2022/05/14 01:32:38;;;;;;;4.75;1.70;;;23.40;35.00;;;;;;5139090;27;20027;-38
2022/05/14 01:35:07;;;;;;;5.50;1.60;;;23.40;35.00;;;;;;5138434;27;20466;-39
2022/05/14 01:37:34;;;;;;;2.95;1.30;;;23.30;35.00;;;;;;5138079;27;20079;-38
2022/05/14 01:40:00;;;;;;;4.30;1.52;;;23.30;35.00;;;;;;5137695;27;20023;-39
2022/05/14 01:42:26;;;;;;;4.05;1.70;;;23.40;35.10;;;;;;5137771;27;20016;-38
2022/05/14 01:44:52;;;;;;;2.83;1.48;;;23.40;35.10;;;;;;5140196;27;20019;-39
2022/05/14 01:47:18;;;;;;;4.57;1.42;;;23.40;35.10;;;;;;5142668;27;20023;-38
2022/05/14 01:49:45;;;;;;;3.40;1.23;;;23.30;35.10;;;;;;5140642;27;20019;-38
2022/05/14 01:52:11;;;;;;;3.72;1.70;;;23.30;35.10;;;;;;5139385;27;20043;-38
2022/05/14 01:54:39;;;;;;;3.25;1.20;;;23.40;35.10;;;;;;5138197;27;20076;-38
2022/05/14 01:57:07;;;;;;;3.40;1.20;;;23.30;35.10;;;;;;5137767;27;20004;-38
2022/05/14 01:59:32;;;;;;;4.90;1.50;;;23.30;35.10;;;;;;5138169;27;20027;-38
2022/05/14 02:01:58;;;;;;;3.20;1.70;;;23.30;35.10;;;;;;5138937;27;20051;-39
2022/05/14 02:04:24;;;;;;;2.85;1.30;;;23.30;35.10;;;;;;5139249;27;20450;-38
2022/05/14 02:06:50;;;;;;;4.68;1.30;;;23.30;35.20;;;;;;5140891;27;20023;-38
2022/05/14 02:09:16;;;;;;;4.32;1.40;;;23.30;35.10;;;;;;5140093;27;20107;-39
2022/05/14 02:11:42;;;;;;;4.28;1.58;;;23.30;35.20;;;;;;5140357;27;20504;-38
2022/05/14 02:14:08;;;;;;;2.75;1.20;;;23.30;35.20;;;;;;5140154;27;20017;-38
2022/05/14 02:16:35;;;;;;;3.78;1.30;;;23.30;35.20;;;;;;5141112;27;20011;-38
2022/05/14 02:19:01;;;;;;;3.33;1.30;;;23.30;35.20;;;;;;5141120;27;20084;-38
2022/05/14 02:21:29;;;;;;;3.13;1.15;;;23.30;35.20;;;;;;5139859;27;20378;-40
2022/05/14 02:23:54;;;;;;;4.97;1.50;;;23.30;35.20;;;;;;5140996;27;20012;-38
2022/05/14 02:26:21;;;;;;;3.33;1.27;;;23.30;35.30;;;;;;5140540;27;20043;-38
2022/05/14 02:28:46;;;;;;;3.38;1.30;;;23.30;35.30;;;;;;5140744;27;20015;-38
2022/05/14 02:31:13;;;;;;;4.55;1.40;;;23.30;35.30;;;;;;5139511;27;20031;-38
2022/05/14 02:33:39;;;;;;;3.90;1.30;;;23.30;35.30;;;;;;5137380;27;20015;-38
2022/05/14 02:36:07;;;;;;;2.92;1.30;;;23.30;35.30;;;;;;5136701;27;20023;-37
2022/05/14 02:38:33;;;;;;;2.95;1.20;;;23.30;35.30;;;;;;5138455;27;20030;-40
2022/05/14 02:40:59;;;;;;;2.10;0.98;;;23.30;35.30;;;;;;5137061;27;20027;-39
2022/05/14 02:43:25;;;;;;;3.50;1.20;;;23.30;35.30;;;;;;5138200;27;20018;-38
2022/05/14 02:45:51;;;;;;;3.00;1.10;;;23.30;35.40;;;;;;5136948;27;20034;-38
2022/05/14 02:48:17;;;;;;;3.80;1.33;;;23.30;35.30;;;;;;5137095;27;20019;-38
2022/05/14 02:50:44;;;;;;;4.03;1.25;;;23.30;35.90;;;;;;5136740;27;20016;-38
2022/05/14 02:53:11;;;;;;;2.75;1.00;;;23.30;35.40;;;;;;5137447;27;20026;-38
2022/05/14 02:55:37;;;;;;;4.65;1.30;;;23.30;35.40;;;;;;5137303;27;20015;-38
2022/05/14 02:58:03;;;;;;;4.18;1.35;;;23.20;35.40;;;;;;5136758;27;20420;-40
2022/05/14 03:00:29;;;;;;;2.25;1.10;;;23.20;35.90;;;;;;5137780;27;20016;-39
2022/05/14 03:02:56;;;;;;;3.85;1.33;;;23.20;35.40;;;;;;5137588;27;20019;-41
2022/05/14 03:05:22;;;;;;;2.53;1.20;;;23.20;35.40;;;;;;5136639;27;20065;-38
2022/05/14 03:07:48;;;;;;;3.30;1.10;;;23.20;35.40;;;;;;5136919;27;20457;-40
2022/05/14 03:10:14;;;;;;;4.07;1.30;;;23.20;35.40;;;;;;5136340;27;20034;-38
2022/05/14 03:12:41;;;;;;;2.25;1.00;;;23.20;35.50;;;;;;5136295;27;20034;-39
2022/05/14 03:15:08;;;;;;;3.85;1.42;;;23.20;35.50;;;;;;5135946;27;20049;-39
2022/05/14 03:17:34;;;;;;;2.70;1.17;;;23.20;36.10;;;;;;5135986;27;20011;-39
2022/05/14 03:20:07;;;;;;;3.85;1.40;;;23.20;35.50;;;;;;5135776;27;20015;-39
2022/05/14 03:22:34;;;;;;;2.85;0.90;;;23.20;35.50;;;;;;5135551;27;20046;-41
2022/05/14 03:25:00;;;;;;;3.40;1.30;;;23.20;35.50;;;;;;5135444;27;20018;-38
2022/05/14 03:27:26;;;;;;;4.07;1.20;;;23.20;35.60;;;;;;5134936;27;20068;-38
2022/05/14 03:29:54;;;;;;;2.30;1.20;;;23.20;35.60;;;;;;5135262;27;20489;-39
2022/05/14 03:32:20;;;;;;;3.83;1.30;;;23.20;35.60;;;;;;5135326;27;20038;-38
2022/05/14 03:34:47;;;;;;;3.80;1.35;;;23.10;35.50;;;;;;5135624;27;20019;-38
2022/05/14 03:37:13;;;;;;;2.53;1.08;;;23.20;35.60;;;;;;5136482;27;20031;-38
2022/05/14 03:39:39;;;;;;;4.45;1.20;;;23.10;35.60;;;;;;5136251;27;20015;-39
2022/05/14 03:42:05;;;;;;;3.17;1.40;;;23.10;35.60;;;;;;5136073;27;20022;-39
2022/05/14 03:44:31;;;;;;;3.45;1.35;;;23.10;35.60;;;;;;5136056;27;20027;-40
2022/05/14 03:46:57;;;;;;;2.67;1.02;;;23.10;35.60;;;;;;5138288;27;20547;-39
2022/05/14 03:49:23;;;;;;;2.95;1.30;;;23.20;35.60;;;;;;5136929;27;20027;-39
2022/05/14 03:51:49;;;;;;;3.95;1.50;;;23.10;35.70;;;;;;5136826;27;20050;-43
2022/05/14 03:54:15;;;;;;;3.25;1.10;;;23.10;35.70;;;;;;5136692;27;20011;-38
2022/05/14 03:56:41;;;;;;;3.78;1.17;;;23.10;35.60;;;;;;5137998;27;20057;-39
2022/05/14 03:59:07;;;;;;;3.45;1.00;;;23.10;35.70;;;;;;5138547;27;20453;-38
2022/05/14 04:01:34;;;;;;;4.18;1.33;;;23.10;35.70;;;;;;5136529;27;20027;-40
2022/05/14 04:04:01;;;;;;;3.05;1.15;;;23.10;35.70;;;;;;5136181;27;20027;-39
2022/05/14 04:06:27;;;;;;;3.03;1.00;;;23.10;35.70;;;;;;5135319;27;20023;-38
2022/05/14 04:08:52;;;;;;;2.63;1.10;;;23.10;35.70;;;;;;5135727;27;20030;-38
2022/05/14 04:11:18;;;;;;;3.85;1.10;;;23.10;35.80;;;;;;5135503;27;20465;-38
2022/05/14 04:13:44;;;;;;;2.67;1.17;;;23.10;35.80;;;;;;5138240;27;20031;-39
2022/05/14 04:16:11;;;;;;;3.38;1.08;;;23.10;35.80;;;;;;5139755;27;20427;-38
2022/05/14 04:18:37;;;;;;;5.65;1.50;;;23.10;35.80;;;;;;5139648;27;20011;-38
2022/05/14 04:21:03;;;;;;;3.20;1.33;;;23.10;35.90;;;;;;5138005;27;20104;-39
2022/05/14 04:23:29;;;;;;;2.63;1.40;;;23.10;35.80;;;;;;5137166;27;20521;-39
2022/05/14 04:25:55;;;;;;;3.42;1.00;;;23.10;35.80;;;;;;5137836;27;20045;-38
2022/05/14 04:28:21;;;;;;;4.07;1.40;;;23.10;35.80;;;;;;5137069;28;20440;-39
2022/05/14 04:30:48;;;;;;;3.45;1.27;;;23.20;35.70;;;;;;5135137;27;20035;-38
2022/05/14 04:33:14;;;;;;;3.42;1.15;;;23.30;35.60;;;;;;5118389;28;20035;-39
2022/05/14 04:35:40;;;;;;;3.58;1.15;;;23.30;35.50;;;;;;5136112;27;20027;-38
2022/05/14 04:38:06;;;;;;;2.92;1.10;;;23.30;35.50;;;;;;5134675;28;20007;-39
2022/05/14 04:40:32;;;;;;;4.80;1.40;;;23.40;35.50;;;;;;5135173;28;20500;-38
2022/05/14 04:42:58;;;;;;;5.65;1.20;;;23.40;35.40;;;;;;5135429;28;20026;-39
2022/05/14 04:45:24;;;;;;;3.47;1.35;;;23.50;35.30;;;;;;5139101;27;20016;-38
2022/05/14 04:47:50;;;;;;;3.22;1.20;;;23.50;35.30;;;;;;5142482;27;20026;-39
2022/05/14 04:50:17;;;;;;;2.60;1.25;;;23.50;35.20;;;;;;5142823;27;20026;-39
2022/05/14 04:52:43;;;;;;;4.05;1.30;;;23.60;35.20;;;;;;5143026;27;20032;-39
2022/05/14 04:55:09;;;;;;;3.15;1.10;;;23.60;35.10;;;;;;5141544;27;20011;-39
2022/05/14 04:57:35;;;;;;;3.40;1.15;;;23.80;34.90;;;;;;5142944;27;20019;-38
2022/05/14 05:00:02;;;;;;;3.17;1.20;;;23.90;34.70;;;;;;5139511;27;20106;-38
2022/05/14 05:05:12;;;;;;;3.45;1.10;;;24.10;34.50;;;;;;5139216;27;20088;-38
2022/05/14 05:07:38;;;;;;;3.55;1.23;;;24.10;34.40;;;;;;5139517;27;20027;-38
2022/05/14 05:10:04;;;;;;;3.03;1.27;;;24.10;34.30;;;;;;5138390;27;20043;-38
2022/05/14 05:12:30;;;;;;;2.75;1.00;;;24.10;34.20;;;;;;5139390;27;20027;-39
2022/05/14 05:14:57;;;;;;;3.47;1.35;;;24.20;34.20;;;;;;5141278;27;20050;-38
2022/05/14 05:17:24;;;;;;;2.53;1.10;;;24.30;34.10;;;;;;5142749;27;20019;-39
2022/05/14 05:19:50;;;;;;;3.45;1.20;;;24.30;34.00;;;;;;5142283;27;20007;-38
2022/05/14 05:22:16;;;;;;;2.72;1.10;;;24.40;34.50;;;;;;5140593;27;20031;-39
2022/05/14 05:24:43;;;;;;;4.20;1.40;;;24.40;33.80;;;;;;5141256;27;20034;-39
2022/05/14 05:27:08;;;;;;;3.08;1.05;;;24.60;33.80;;;;;;5142615;27;20015;-41
2022/05/14 05:29:34;;;;;;;4.05;1.20;;;24.60;33.60;;;;;;5141057;27;20047;-41
2022/05/14 05:32:01;;;;;;;3.03;1.10;;;24.70;33.40;;;;;;5142956;27;20040;-40
2022/05/14 05:34:27;;;;;;;4.10;1.30;;;24.80;33.30;;;;;;5142225;27;20007;-40
2022/05/14 05:36:53;;;;;;;2.67;1.08;;;24.90;33.20;;;;;;5142004;27;20125;-40
2022/05/14 05:39:19;;;;;;;2.83;1.13;;;24.90;33.00;;;;;;5142053;27;20061;-41
2022/05/14 05:41:46;;;;;;;2.67;1.00;;;25.10;33.00;;;;;;5141499;27;20046;-38
2022/05/14 05:44:12;;;;;;;2.83;1.13;;;25.20;32.80;;;;;;5139500;27;20049;-38
2022/05/14 05:46:37;;;;;;;2.67;1.23;;;25.20;32.70;;;;;;5136401;27;20027;-38
2022/05/14 05:49:04;;;;;;;3.75;1.27;;;25.30;32.60;;;;;;5137817;27;20511;-38
2022/05/14 05:51:31;;;;;;;4.63;1.38;;;25.40;32.40;;;;;;5137653;27;20087;-38
2022/05/14 05:56:51;;;;;;;2.35;1.10;;;25.60;32.20;;;;;;5137387;27;20050;-39
2022/05/14 05:59:17;;;;;;;2.83;1.30;;;25.70;32.10;;;;;;5138374;27;20068;-40
2022/05/14 06:01:43;;;;;;;3.33;1.35;;;25.80;32.00;;;;;;5138428;27;20022;-39
2022/05/14 06:04:09;;;;;;;2.38;1.17;;;25.90;31.90;;;;;;5138484;27;20067;-39
2022/05/14 06:06:36;;;;;;;2.60;1.25;;;26.00;31.70;;;;;;5137646;27;20023;-39
2022/05/14 06:09:02;;;;;;;3.63;1.30;;;26.10;31.70;;;;;;5139313;27;20019;-37
2022/05/14 06:11:30;;;;;;;3.65;1.17;;;26.20;31.50;;;;;;5136881;27;20035;-36
2022/05/14 06:13:56;;;;;;;3.45;1.13;;;26.20;31.40;;;;;;5137148;27;20019;-37
2022/05/14 06:16:21;;;;;;;3.08;1.17;;;26.30;31.30;;;;;;5136297;27;20043;-37
2022/05/14 06:18:47;;;;;;;2.72;1.35;;;26.40;31.20;;;;;;5137547;27;20047;-36
2022/05/14 06:21:13;;;;;;;2.50;1.08;;;26.50;31.20;;;;;;5134901;27;20555;-37
2022/05/14 06:23:39;;;;;;;3.35;1.60;;;26.60;31.10;;;;;;5135081;27;20012;-38
2022/05/14 06:26:05;;;;;;;2.72;1.10;;;26.70;31.00;;;;;;5136593;27;20042;-39
2022/05/14 06:28:31;;;;;;;2.17;1.10;;;26.80;30.90;;;;;;5136680;27;20076;-39
2022/05/14 06:30:57;;;;;;;2.83;1.10;;;26.80;30.80;;;;;;5118235;27;20438;-38
2022/05/14 06:33:26;;;;;;;3.30;1.17;;;26.90;30.80;;;;;;5136454;27;20041;-38
2022/05/14 06:35:51;;;;;;;5.50;1.25;;;27.00;30.70;;;;;;5135091;27;20027;-36
2022/05/14 06:38:17;;;;;;;3.13;1.13;;;27.00;30.60;;;;;;5135262;27;20015;-36
2022/05/14 06:40:44;;;;;;;3.55;1.08;;;27.10;30.50;;;;;;5136238;27;20019;-39
2022/05/14 06:43:11;;;;;;;3.65;1.05;;;27.20;30.50;;;;;;5136214;27;20012;-39
2022/05/14 06:45:38;;;;;;;3.63;1.10;;;27.30;30.40;;;;;;5135622;27;20019;-38
2022/05/14 06:48:04;;;;;;;2.97;1.38;;;27.40;30.20;;;;;;5135964;27;20543;-37
2022/05/14 06:50:30;;;;;;;4.20;1.70;;;27.40;30.20;;;;;;5135711;27;20054;-37
2022/05/14 06:52:58;;;;;;;3.85;1.30;;;27.50;30.20;;;;;;5134840;27;20019;-37
2022/05/14 06:55:25;;;;;;;3.20;1.27;;;27.60;30.10;;;;;;5134855;27;20019;-37
2022/05/14 06:57:51;;;;;;;2.75;1.02;;;27.60;30.00;;;;;;5135109;27;20086;-37
2022/05/14 07:00:18;;;;;;;2.63;1.08;;;27.80;30.00;;;;;;5135060;27;20039;-37
2022/05/14 07:02:44;;;;;;;3.55;1.17;;;27.80;30.00;;;;;;5136683;27;20128;-38
2022/05/14 07:07:54;;;;;;;3.35;0.95;;;27.90;29.90;;;;;;5135057;27;20075;-39
2022/05/14 07:10:20;;;;;;;4.25;1.23;;;28.00;29.90;;;;;;5135746;27;20015;-39
2022/05/14 07:12:45;;;;;;;2.45;1.10;;;28.10;29.90;;;;;;5134319;27;20027;-36
2022/05/14 07:15:12;;;;;;;2.72;1.10;;;28.10;30.00;;;;;;5137270;27;20025;-36
2022/05/14 07:17:38;;;;;;;4.60;1.25;;;28.10;29.80;;;;;;5136860;27;20465;-36
2022/05/14 07:20:05;;;;;;;2.85;1.00;;;28.20;30.40;;;;;;5137009;27;20007;-35
2022/05/14 07:22:31;;;;;;;5.78;1.40;;;28.20;29.90;;;;;;5136239;27;20047;-35
2022/05/14 07:24:57;;;;;;;5.07;1.20;;;28.30;29.90;;;;;;5135873;27;20020;-35
2022/05/14 07:27:23;;;;;;;3.63;1.40;;;28.30;29.80;;;;;;5135185;27;20076;-36
2022/05/14 07:29:49;;;;;;;3.10;1.30;;;28.40;29.80;;;;;;5136426;27;20094;-35
2022/05/14 07:32:17;;;;;;;4.07;1.20;;;28.40;29.90;;;;;;5117265;27;20114;-37
2022/05/14 07:34:42;;;;;;;3.20;1.33;;;28.50;29.90;;;;;;5135240;27;20478;-37
2022/05/14 07:37:25;;;;;;;2.20;1.10;;;28.60;29.90;;;;;;5135252;27;20012;-35
2022/05/14 07:39:53;;;;;;;4.53;1.25;;;28.60;29.90;;;;;;5136175;27;20012;-35
2022/05/14 07:42:29;;;;;;;3.28;1.10;;;28.60;29.90;;;;;;5118698;27;20013;-35
2022/05/14 07:44:55;;;;;;;3.40;1.35;;;28.60;29.90;;;;;;5136361;27;20019;-35
2022/05/14 07:47:21;;;;;;;2.90;1.13;;;28.70;29.80;;;;;;5134311;27;20030;-37
2022/05/14 07:49:46;;;;;;;2.92;1.33;;;28.70;29.80;;;;;;5137295;27;20090;-37
2022/05/14 07:52:13;;;;;;;3.70;1.30;;;28.70;29.90;;;;;;5137227;27;20088;-37
2022/05/14 07:54:39;;;;;;;3.13;1.10;;;28.80;29.90;;;;;;5135126;27;20086;-39
2022/05/14 07:57:06;;;;;;;4.20;1.42;;;28.80;29.80;;;;;;5135142;27;20041;-38
2022/05/14 07:59:35;;;;;;;2.75;1.10;;;28.90;29.80;;;;;;5136123;27;20080;-40
2022/05/14 08:02:05;;;;;;;4.90;1.45;;;28.90;29.90;;;;;;5135968;27;20029;-38
2022/05/14 08:04:31;;;;;;;;;;;28.90;29.90;;;;;;5136522;27;20062;-39
2022/05/14 08:06:57;;;;;;;4.43;1.52;;;28.90;29.90;;;;;;5136925;27;19899;-42
2022/05/14 08:09:23;;;;;;;3.40;1.55;;;28.90;29.90;;;;;;5135723;27;20046;-38
2022/05/14 08:11:49;;;;;;;4.22;1.30;;;29.00;29.90;;;;;;5134980;27;20493;-39
2022/05/14 08:14:15;;;;;;;4.50;1.52;;;29.00;29.90;;;;;;5135088;27;20051;-39
2022/05/14 08:16:41;;;;;;;6.68;1.33;;;29.10;29.90;;;;;;5134719;27;20058;-39
2022/05/14 08:19:07;;;;;;;2.55;1.23;;;29.10;29.90;;;;;;5134826;27;20060;-39
2022/05/14 08:24:36;;;;;;;5.00;1.65;;;29.10;29.90;;;;;;5134505;27;20131;-38
2022/05/14 08:27:09;;;;;;;4.68;1.40;;;29.20;30.00;;;;;;5134833;27;20039;-38
2022/05/14 08:29:36;;;;;;;3.38;1.30;;;29.20;30.00;;;;;;5135186;27;20007;-39
2022/05/14 08:32:03;;;;;;;4.35;1.67;;;29.20;30.00;;;;;;5135919;27;20027;-38
2022/05/14 08:34:29;;;;;;;3.17;1.20;;;29.20;30.00;;;;;;5134505;28;20560;-38
2022/05/14 08:36:55;;;;;;;4.65;1.60;;;29.20;30.00;;;;;;5135197;27;20032;-39
2022/05/14 08:39:21;;;;;;;3.20;1.40;;;29.20;30.00;;;;;;5135001;27;20018;-38
2022/05/14 08:41:49;;;;;;;3.47;1.17;;;29.20;30.00;;;;;;5135664;27;20521;-38
2022/05/14 08:44:21;;;;;;;4.55;1.50;;;29.20;30.00;;;;;;5133864;28;20015;-39
2022/05/14 08:46:57;;;;;;;4.88;1.20;;;29.30;30.00;;;;;;5133922;28;20019;-38
2022/05/14 08:49:33;;;;;;;3.60;1.33;;;29.30;30.00;;;;;;5133794;28;20015;-39
2022/05/14 08:51:59;;;;;;;3.35;1.40;;;29.30;30.00;;;;;;5135176;27;20054;-39
2022/05/14 08:54:26;;;;;;;4.47;1.30;;;29.30;30.00;;;;;;5133977;28;20007;-39
2022/05/14 08:56:55;;;;;;;5.45;1.60;;;29.30;30.10;;;;;;5136344;27;20461;-39
2022/05/14 08:59:45;;;;;;;3.30;1.25;;;29.30;30.20;;;;;;5137089;28;20034;-42
2022/05/14 09:02:28;;;;;;;4.80;1.50;;;29.20;30.10;;;;;;5135981;28;20027;-38
2022/05/14 09:04:58;;;;;;;4.93;1.50;;;29.30;30.20;;;;;;5136172;27;20012;-39
2022/05/14 09:07:23;;;;;;;5.22;1.50;;;29.30;30.20;;;;;;5134618;28;20061;-39
2022/05/14 09:09:55;;;;;;;4.68;1.40;;;29.20;30.30;;;;;;5134639;28;20016;-40
2022/05/14 09:12:29;;;;;;;4.07;1.30;;;29.20;30.40;;;;;;5134612;27;20056;-41
2022/05/14 09:14:59;;;;;;;2.97;1.42;;;29.20;30.40;;;;;;5137693;27;20042;-43
2022/05/14 09:17:28;;;;;;;3.55;1.60;;;29.20;30.50;;;;;;5138502;27;20011;-39
2022/05/14 09:19:55;;;;;;;3.67;1.40;;;29.20;30.50;;;;;;5135576;28;20015;-40
2022/05/14 09:22:26;;;;;;;3.50;1.60;;;29.20;30.60;;;;;;5134505;27;20054;-40
2022/05/14 09:24:53;;;;;;;4.03;1.55;;;29.20;30.50;;;;;;5132877;28;20018;-39
2022/05/14 09:27:43;;;;;;;3.42;1.33;;;29.20;30.50;;;;;;5134803;27;20011;-41
2022/05/14 09:30:12;;;;;;;4.70;1.30;;;29.20;30.50;;;;;;5127652;28;20729;-40
2022/05/14 09:32:43;;;;;;;4.28;1.75;;;29.30;30.60;;;;;;5139473;27;20019;-39
2022/05/14 09:35:29;;;;;;;4.15;1.15;;;29.20;30.60;;;;;;5142576;27;20003;-39
2022/05/14 09:38:09;;;;;;;3.85;1.27;;;29.20;30.70;;;;;;5142114;27;20088;-43
2022/05/14 09:40:35;;;;;;;;;;;29.20;30.80;;;;;;5142375;27;20008;-39
2022/05/14 09:43:08;;;;;;;5.90;1.65;;;29.20;30.70;;;;;;5142108;27;19906;-42
2022/05/14 09:45:38;;;;;;;5.07;1.55;;;29.20;30.80;;;;;;5141976;27;20023;-41
2022/05/14 09:48:16;;;;;;;3.80;1.33;;;29.20;30.80;;;;;;5142017;27;20019;-39
2022/05/14 09:50:51;;;;;;;3.67;1.40;;;29.20;30.90;;;;;;5142710;27;20039;-39
2022/05/14 09:53:31;;;;;;;4.15;1.70;;;29.20;30.90;;;;;;5141557;27;20020;-41
2022/05/14 09:56:55;;;;;;;5.43;1.85;;;29.20;30.90;;;;;;5141343;27;20011;-41
2022/05/14 09:59:37;;;;;;;4.82;1.45;;;29.10;30.90;;;;;;5102452;28;20032;-40
2022/05/14 10:02:34;;;;;;;6.13;1.77;;;29.10;31.00;;;;;;5098550;28;20042;-40
2022/05/14 10:05:06;;;;;;;5.38;1.85;;;29.10;31.00;;;;;;5094438;28;20049;-40
2022/05/14 10:07:34;;;;;;;5.18;1.63;;;29.10;31.00;;;;;;5117656;28;20600;-41
2022/05/14 10:10:22;;;;;;;3.30;1.50;;;29.10;31.10;;;;;;5117544;28;20099;-40
2022/05/14 10:13:17;;;;;;;3.88;1.60;;;29.10;31.10;;;;;;5115729;28;20077;-42
2022/05/14 10:15:56;;;;;;;3.78;1.38;;;29.00;31.10;;;;;;5099254;28;20027;-41
2022/05/14 10:18:36;;;;;;;2.83;1.20;;;29.00;31.20;;;;;;5098431;28;20505;-40
2022/05/14 10:21:46;;;;;;;6.45;1.60;;;29.00;31.30;;;;;;5113889;28;20118;-40
2022/05/14 10:27:41;;;;;;;3.65;1.48;;;28.90;31.30;;;;;;5022280;28;20147;-39
2022/05/14 10:30:22;;;;;;;3.92;1.48;;;28.90;31.40;;;;;;5033716;28;20030;-42
2022/05/14 10:32:54;;;;;;;4.40;1.67;;;28.90;31.50;;;;;;5033545;28;20040;-38
2022/05/14 10:35:42;;;;;;;6.93;1.67;;;28.80;31.50;;;;;;5046259;28;20025;-39
2022/05/14 10:38:16;;;;;;;4.25;1.58;;;28.80;31.60;;;;;;5037806;28;20081;-39
2022/05/14 10:40:46;;;;;;;3.42;1.67;;;28.80;31.60;;;;;;5021008;28;20025;-39
2022/05/14 10:43:29;;;;;;;2.90;1.30;;;28.70;31.60;;;;;;5052686;28;20096;-39
2022/05/14 10:45:55;;;;;;;3.70;1.58;;;28.70;31.70;;;;;;5052709;28;20028;-38
2022/05/14 10:48:30;;;;;;;4.57;1.92;;;28.70;31.70;;;;;;5036661;28;20029;-39
2022/05/14 10:50:55;;;;;;;4.95;1.52;;;28.60;31.80;;;;;;5036575;28;20013;-39
2022/05/14 10:53:21;;;;;;;3.53;1.50;;;28.50;31.90;;;;;;5036614;28;20098;-39
2022/05/14 10:55:53;;;;;;;4.60;1.67;;;28.50;31.90;;;;;;5037445;28;20024;-39
2022/05/14 10:58:42;;;;;;;4.93;1.60;;;28.50;32.00;;;;;;5038450;28;20495;-40
2022/05/14 11:01:24;;;;;;;4.20;1.80;;;28.50;32.10;;;;;;5112725;27;20031;-40
2022/05/14 11:03:58;;;;;;;4.35;1.60;;;28.40;32.10;;;;;;5139278;27;20407;-40
2022/05/14 11:06:29;;;;;;;2.88;1.33;;;28.40;32.20;;;;;;5138776;27;20346;-39
2022/05/14 11:08:55;;;;;;;3.55;1.75;;;28.30;32.20;;;;;;5139563;27;20038;-41
2022/05/14 11:11:26;;;;;;;5.40;2.10;;;28.30;32.30;;;;;;5139086;27;20023;-40
2022/05/14 11:14:08;;;;;;;3.60;1.70;;;28.20;32.30;;;;;;5138834;27;20075;-40
2022/05/14 11:16:45;;;;;;;6.15;1.80;;;28.30;32.50;;;;;;5137383;27;20016;-43
2022/05/14 11:19:24;;;;;;;4.68;1.40;;;28.20;32.40;;;;;;5140225;27;20026;-40
2022/05/14 11:21:49;;;;;;;3.95;1.60;;;28.20;32.50;;;;;;5138715;27;20051;-43
2022/05/14 11:24:16;;;;;;;5.68;1.55;;;28.10;32.50;;;;;;5138291;27;20134;-41
2022/05/14 11:26:51;;;;;;;3.65;1.52;;;28.10;32.60;;;;;;5138050;27;20043;-40
2022/05/14 11:29:26;;;;;;;5.00;1.60;;;28.10;32.70;;;;;;5139582;27;20102;-40
2022/05/14 11:32:05;;;;;;;5.28;1.88;;;28.00;32.70;;;;;;5138882;27;20058;-40
2022/05/14 11:34:31;;;;;;;3.72;1.55;;;28.00;32.80;;;;;;5136592;27;20020;-39
2022/05/14 11:36:59;;;;;;;3.53;1.52;;;27.90;32.90;;;;;;5135944;27;20011;-39
2022/05/14 11:39:31;;;;;;;3.85;1.52;;;27.90;32.90;;;;;;5137407;27;20011;-39
2022/05/14 11:42:12;;;;;;;3.67;1.40;;;27.80;33.00;;;;;;5139138;27;20023;-39
2022/05/14 11:44:41;;;;;;;6.00;2.00;;;27.80;33.10;;;;;;5138997;27;20015;-39
2022/05/14 11:47:35;;;;;;;4.03;1.50;;;27.70;33.20;;;;;;5140038;27;20037;-38
2022/05/14 11:50:02;;;;;;;4.15;1.60;;;27.70;33.30;;;;;;5120040;27;20022;-39
2022/05/14 11:53:04;;;;;;;4.47;1.50;;;27.60;33.30;;;;;;5137077;27;20031;-37
2022/05/14 11:56:05;;;;;;;4.90;1.75;;;27.60;33.40;;;;;;5060704;28;20059;-37
2022/05/14 11:58:31;;;;;;;4.22;1.50;;;27.50;33.50;;;;;;4993579;28;20034;-38
2022/05/14 12:00:56;;;;;;;3.40;1.63;;;27.40;33.60;;;;;;4995225;28;20462;-38
2022/05/14 12:03:34;;;;;;;4.40;1.70;;;27.40;33.70;;;;;;4995598;28;20093;-39
2022/05/14 12:06:20;;;;;;;2.97;1.63;;;27.40;33.80;;;;;;4994606;28;20125;-38
2022/05/14 12:09:09;;;;;;;4.25;1.60;;;27.30;33.70;;;;;;4993913;28;20111;-37
2022/05/14 12:11:44;;;;;;;4.07;1.70;;;27.30;34.40;;;;;;4992884;28;20061;-37
2022/05/14 12:14:32;;;;;;;3.85;1.63;;;27.20;33.80;;;;;;4993292;28;20037;-38
2022/05/14 12:16:59;;;;;;;4.20;1.63;;;27.20;34.00;;;;;;4994922;28;20026;-38
2022/05/14 12:19:29;;;;;;;6.70;1.90;;;27.10;34.00;;;;;;4993400;28;20123;-37
2022/05/14 12:21:56;;;;;;;;;;;27.10;34.00;;;;;;4993822;28;20050;-37
2022/05/14 12:24:23;;;;;;;5.22;1.75;;;27.10;34.00;;;;;;4992113;28;20001;-37
2022/05/14 12:26:49;;;;;;;3.97;1.63;;;27.10;34.10;;;;;;4991960;28;20080;-37
2022/05/14 12:29:23;;;;;;;4.97;1.70;;;27.00;34.10;;;;;;5016008;28;20064;-38
2022/05/14 12:34:56;;;;;;;5.53;2.00;;;26.90;34.20;;;;;;5121950;28;20072;-38
2022/05/14 12:37:48;;;;;;;3.85;1.60;;;26.90;34.20;;;;;;5120093;28;20110;-37
2022/05/14 12:40:28;;;;;;;5.07;1.83;;;26.90;34.20;;;;;;5131976;28;20097;-37
2022/05/14 12:42:53;;;;;;;4.78;1.70;;;26.80;34.20;;;;;;5135833;28;20026;-41
2022/05/14 12:45:19;;;;;;;4.57;1.70;;;26.80;34.30;;;;;;5135139;28;20163;-39
2022/05/14 12:47:47;;;;;;;3.75;1.70;;;26.80;34.30;;;;;;5134660;28;20481;-37
2022/05/14 12:50:21;;;;;;;3.88;1.40;;;26.80;34.30;;;;;;5135483;27;20076;-37
2022/05/14 12:52:57;;;;;;;4.47;1.70;;;26.80;34.30;;;;;;5135463;27;20101;-38
2022/05/14 12:55:24;;;;;;;4.53;1.80;;;26.80;34.30;;;;;;5135195;27;20019;-39
2022/05/14 12:57:51;;;;;;;3.22;1.50;;;26.70;34.30;;;;;;5132806;28;20026;-38
2022/05/14 13:00:17;;;;;;;3.88;1.70;;;26.80;34.30;;;;;;5133916;28;20096;-42
2022/05/14 13:02:49;;;;;;;5.47;1.55;;;26.70;34.30;;;;;;5134806;28;20030;-38
2022/05/14 13:05:45;;;;;;;4.65;1.90;;;26.70;34.30;;;;;;5135307;27;20020;-37
2022/05/14 13:08:18;;;;;;;4.15;1.60;;;26.70;34.30;;;;;;5135060;27;20034;-37
2022/05/14 13:10:52;;;;;;;3.67;1.75;;;26.70;34.30;;;;;;5137646;27;20019;-39
2022/05/14 13:13:17;;;;;;;3.22;1.60;;;26.70;34.30;;;;;;5137507;27;20023;-38
2022/05/14 13:15:45;;;;;;;6.15;1.67;;;26.70;34.30;;;;;;5137752;27;20011;-38
2022/05/14 13:18:19;;;;;;;4.38;1.75;;;26.70;34.30;;;;;;5138906;27;20007;-39
2022/05/14 13:20:45;;;;;;;4.15;1.60;;;26.70;34.40;;;;;;5138358;27;20059;-42